createdAt,value
2022-11-28T00:01:21.909Z,97.84
2022-11-28T00:03:48.740Z,97.10
2022-11-28T00:06:16.046Z,96.60
2022-11-28T00:08:42.837Z,96.00
2022-11-28T00:11:11.108Z,94.86
2022-11-28T00:13:38.523Z,94.88
2022-11-28T00:16:07.947Z,94.98
2022-11-28T00:18:34.575Z,95.59
2022-11-28T00:21:03.619Z,97.35
2022-11-28T00:23:30.312Z,99.05
2022-11-28T00:25:59.137Z,100.00
2022-11-28T00:28:25.649Z,100.00
2022-11-28T00:30:52.151Z,100.00
2022-11-28T00:33:18.890Z,99.95
2022-11-28T00:35:45.418Z,100.00
2022-11-28T00:38:11.954Z,100.00
2022-11-28T00:40:38.577Z,99.04
2022-11-28T00:43:05.126Z,97.99
2022-11-28T00:45:31.716Z,97.39
2022-11-28T00:47:58.244Z,97.50
2022-11-28T00:50:24.940Z,97.28
2022-11-28T00:52:51.423Z,94.97
2022-11-28T00:55:18.093Z,95.26
2022-11-28T00:57:46.108Z,94.64
2022-11-28T01:00:13.094Z,94.53
2022-11-28T01:02:40.135Z,94.04
2022-11-28T01:05:07.244Z,95.61
2022-11-28T01:07:33.867Z,95.24
2022-11-28T01:10:00.439Z,93.66
2022-11-28T01:12:26.911Z,93.03
2022-11-28T01:14:53.643Z,95.27
2022-11-28T01:17:20.207Z,95.51
2022-11-28T01:19:46.788Z,94.56
2022-11-28T01:22:13.320Z,95.15
2022-11-28T01:24:39.892Z,95.92
2022-11-28T01:27:06.527Z,95.99
2022-11-28T01:29:32.975Z,96.60
2022-11-28T01:31:59.466Z,97.94
2022-11-28T01:34:26.002Z,97.52
2022-11-28T01:36:52.434Z,99.05
2022-11-28T01:39:18.920Z,98.88
2022-11-28T01:41:45.404Z,98.35
2022-11-28T01:44:11.835Z,98.90
2022-11-28T01:46:38.565Z,97.24
2022-11-28T01:49:15.526Z,95.42
2022-11-28T01:51:47.686Z,92.57
2022-11-28T01:54:17.828Z,90.31
2022-11-28T01:56:58.875Z,90.79
2022-11-28T01:59:29.670Z,94.86
2022-11-28T02:01:56.354Z,94.81
2022-11-28T02:04:26.893Z,93.87
2022-11-28T02:06:54.233Z,93.58
2022-11-28T02:09:21.191Z,94.63
2022-11-28T02:11:59.759Z,95.89
2022-11-28T02:15:05.384Z,96.78
2022-11-28T02:17:50.692Z,96.94
2022-11-28T02:20:39.944Z,96.63
2022-11-28T02:23:25.455Z,95.28
2022-11-28T02:26:10.556Z,97.80
2022-11-28T02:28:49.071Z,97.54
2022-11-28T02:31:30.395Z,95.87
2022-11-28T02:34:05.897Z,91.95
2022-11-28T02:36:36.881Z,92.86
2022-11-28T02:39:30.125Z,96.80
2022-11-28T02:42:08.833Z,97.09
2022-11-28T02:44:47.514Z,96.16
2022-11-28T02:47:23.461Z,94.58
2022-11-28T02:50:13.684Z,96.11
2022-11-28T02:52:45.380Z,96.78
2022-11-28T02:55:13.379Z,96.70
2022-11-28T02:57:48.499Z,95.99
2022-11-28T03:00:26.970Z,95.28
2022-11-28T03:03:35.906Z,95.54
2022-11-28T03:06:23.879Z,96.33
2022-11-28T03:09:08.841Z,97.99
2022-11-28T03:12:07.456Z,98.01
2022-11-28T03:14:55.837Z,98.27
2022-11-28T03:17:22.207Z,97.84
2022-11-28T03:20:07.497Z,95.87
2022-11-28T03:22:44.985Z,96.36
2022-11-28T03:25:30.095Z,98.97
2022-11-28T03:28:07.175Z,99.10
2022-11-28T03:31:00.157Z,98.54
2022-11-28T03:33:33.143Z,97.20
2022-11-28T03:36:16.718Z,95.17
2022-11-28T03:38:48.100Z,94.89
2022-11-28T03:41:19.267Z,95.27
2022-11-28T03:43:56.627Z,93.15
2022-11-28T03:46:30.747Z,94.45
2022-11-28T03:48:59.888Z,95.87
2022-11-28T03:51:53.247Z,100.00
2022-11-28T03:54:26.811Z,100.00
2022-11-28T03:57:23.051Z,100.00
2022-11-28T03:59:53.025Z,100.00
2022-11-28T04:02:40.092Z,100.00
2022-11-28T04:05:37.407Z,100.00
2022-11-28T04:08:24.402Z,100.00
2022-11-28T04:10:58.385Z,99.94
2022-11-28T04:13:54.934Z,100.00
2022-11-28T04:16:31.602Z,96.00
2022-11-28T04:19:06.260Z,95.78
2022-11-28T04:21:39.875Z,98.95
2022-11-28T04:24:11.387Z,99.17
2022-11-28T04:26:48.798Z,100.00
2022-11-28T04:29:18.567Z,100.00
2022-11-28T04:31:46.420Z,100.00
2022-11-28T04:34:17.471Z,100.00
2022-11-28T04:36:45.847Z,100.00
2022-11-28T04:39:18.237Z,100.00
2022-11-28T04:42:19.161Z,100.00
2022-11-28T04:45:11.831Z,100.00
2022-11-28T04:47:38.537Z,100.00
2022-11-28T04:50:05.960Z,100.00
2022-11-28T04:52:40.856Z,98.23
2022-11-28T04:55:07.348Z,97.02
2022-11-28T04:57:40.176Z,95.39
2022-11-28T05:00:17.341Z,93.02
2022-11-28T05:02:46.599Z,93.77
2022-11-28T05:05:17.558Z,94.63
2022-11-28T05:07:44.105Z,97.04
2022-11-28T05:10:11.908Z,95.94
2022-11-28T05:12:38.853Z,97.26
2022-11-28T05:15:06.957Z,98.04
2022-11-28T05:17:37.684Z,98.76
2022-11-28T05:20:07.597Z,98.97
2022-11-28T05:22:34.131Z,100.00
2022-11-28T05:25:00.587Z,100.00
2022-11-28T05:27:27.031Z,100.00
2022-11-28T05:29:53.825Z,100.00
2022-11-28T05:32:20.416Z,100.00
2022-11-28T05:34:46.882Z,100.00
2022-11-28T05:37:13.384Z,100.00
2022-11-28T05:39:40.035Z,100.00
2022-11-28T05:42:06.803Z,100.00
2022-11-28T05:44:33.250Z,100.00
2022-11-28T05:46:59.810Z,100.00
2022-11-28T05:49:26.390Z,100.00
2022-11-28T05:51:52.855Z,100.00
2022-11-28T05:54:19.441Z,100.00
2022-11-28T05:56:45.979Z,100.00
2022-11-28T05:59:13.791Z,100.00
2022-11-28T06:01:40.538Z,100.00
2022-11-28T06:04:07.100Z,100.00
2022-11-28T06:06:35.223Z,100.00
2022-11-28T06:09:01.936Z,100.00
2022-11-28T06:11:30.522Z,100.00
2022-11-28T06:13:57.145Z,100.00
2022-11-28T06:16:28.252Z,100.00
2022-11-28T06:18:56.230Z,100.00
2022-11-28T06:21:23.839Z,100.00
2022-11-28T06:23:50.586Z,100.00
2022-11-28T06:26:20.717Z,100.00
2022-11-28T06:28:47.638Z,100.00
2022-11-28T06:31:27.336Z,100.00
2022-11-28T06:33:54.141Z,100.00
2022-11-28T06:36:20.745Z,100.00
2022-11-28T06:38:48.101Z,100.00
2022-11-28T06:41:17.917Z,100.00
2022-11-28T06:43:44.384Z,100.00
2022-11-28T06:46:16.155Z,100.00
2022-11-28T06:48:43.925Z,100.00
2022-11-28T06:51:11.278Z,100.00
2022-11-28T06:53:37.999Z,100.00
2022-11-28T06:56:10.211Z,100.00
2022-11-28T06:58:36.885Z,100.00
2022-11-28T07:01:12.001Z,100.00
2022-11-28T07:03:39.556Z,100.00
2022-11-28T07:06:07.043Z,100.00
2022-11-28T07:08:34.198Z,100.00
2022-11-28T07:11:11.243Z,100.00
2022-11-28T07:13:38.563Z,100.00
2022-11-28T07:16:05.682Z,100.00
2022-11-28T07:18:32.965Z,100.00
2022-11-28T07:20:59.818Z,100.00
2022-11-28T07:23:26.568Z,100.00
2022-11-28T07:25:58.584Z,100.00
2022-11-28T07:28:25.444Z,100.00
2022-11-28T07:31:10.720Z,100.00
2022-11-28T07:33:38.610Z,100.00
2022-11-28T07:36:08.664Z,100.00
2022-11-28T07:38:35.241Z,100.00
2022-11-28T07:41:13.472Z,100.00
2022-11-28T07:43:45.315Z,100.00
2022-11-28T07:46:14.778Z,100.00
2022-11-28T07:48:42.166Z,100.00
2022-11-28T07:51:14.046Z,100.00
2022-11-28T07:53:40.933Z,100.00
2022-11-28T07:56:12.958Z,100.00
2022-11-28T07:58:39.519Z,100.00
2022-11-28T08:01:14.388Z,100.00
2022-11-28T08:03:41.110Z,100.00
2022-11-28T08:06:08.775Z,100.00
2022-11-28T08:08:35.729Z,100.00
2022-11-28T08:11:05.082Z,99.61
2022-11-28T08:13:31.986Z,99.40
2022-11-28T08:16:00.888Z,99.66
2022-11-28T08:18:27.551Z,99.84
2022-11-28T08:21:03.796Z,99.24
2022-11-28T08:23:30.209Z,98.57
2022-11-28T08:25:56.724Z,96.62
2022-11-28T08:28:23.203Z,94.94
2022-11-28T08:30:49.740Z,94.21
2022-11-28T08:33:16.272Z,93.46
2022-11-28T08:35:42.709Z,91.93
2022-11-28T08:38:09.176Z,91.35
2022-11-28T08:40:35.787Z,92.54
2022-11-28T08:43:02.279Z,91.92
2022-11-28T08:45:28.826Z,93.14
2022-11-28T08:47:55.300Z,94.05
2022-11-28T08:50:22.046Z,92.33
2022-11-28T08:52:48.772Z,90.55
2022-11-28T08:55:15.332Z,90.55
2022-11-28T08:57:41.800Z,89.14
2022-11-28T09:00:08.716Z,88.51
2022-11-28T09:02:35.259Z,87.17
2022-11-28T09:05:01.720Z,86.36
2022-11-28T09:07:28.314Z,86.03
2022-11-28T09:09:54.802Z,86.12
2022-11-28T09:12:21.227Z,87.53
2022-11-28T09:14:47.777Z,87.24
2022-11-28T09:17:15.884Z,88.61
2022-11-28T09:19:43.077Z,88.59
2022-11-28T09:22:09.884Z,86.98
2022-11-28T09:24:36.391Z,85.69
2022-11-28T09:27:02.911Z,84.60
2022-11-28T09:29:29.510Z,85.09
2022-11-28T09:31:55.943Z,84.87
2022-11-28T09:34:22.454Z,85.72
2022-11-28T09:36:50.011Z,86.02
2022-11-28T09:39:16.570Z,84.63
2022-11-28T09:42:00.491Z,84.24
2022-11-28T09:44:37.563Z,84.08
2022-11-28T09:47:12.076Z,82.86
2022-11-28T09:49:52.547Z,83.15
2022-11-28T09:52:29.587Z,83.06
2022-11-28T09:55:04.193Z,82.70
2022-11-28T09:57:49.246Z,83.97
2022-11-28T10:00:22.571Z,83.41
2022-11-28T10:03:00.782Z,82.95
2022-11-28T10:05:42.070Z,83.69
2022-11-28T10:08:29.792Z,84.74
2022-11-28T10:11:34.066Z,85.36
2022-11-28T10:14:18.568Z,84.79
2022-11-28T10:16:57.539Z,85.53
2022-11-28T10:22:31.163Z,84.79
2022-11-28T10:25:03.278Z,84.71
2022-11-28T10:27:34.942Z,84.84
2022-11-28T10:30:08.707Z,83.97
2022-11-28T10:32:41.067Z,82.48
2022-11-28T10:35:26.718Z,79.32
2022-11-28T10:37:54.867Z,80.21
2022-11-28T10:40:48.430Z,81.30
2022-11-28T10:43:44.009Z,80.27
2022-11-28T10:46:30.017Z,81.98
2022-11-28T10:49:05.744Z,82.97
2022-11-28T10:52:04.153Z,83.88
2022-11-28T10:55:01.854Z,84.40
2022-11-28T10:57:48.595Z,85.67
2022-11-28T11:00:18.443Z,84.94
2022-11-28T11:02:54.851Z,85.85
2022-11-28T11:05:26.819Z,87.73
2022-11-28T11:07:55.486Z,88.63
2022-11-28T11:11:03.503Z,90.31
2022-11-28T11:13:33.336Z,88.71
2022-11-28T11:16:04.679Z,88.47
2022-11-28T11:18:34.917Z,87.43
2022-11-28T11:21:20.157Z,87.84
2022-11-28T11:23:48.215Z,89.68
2022-11-28T11:26:25.339Z,88.70
2022-11-28T11:28:52.419Z,89.37
2022-11-28T11:31:21.805Z,88.50
2022-11-28T11:33:53.005Z,88.14
2022-11-28T11:36:26.377Z,85.98
2022-11-28T11:39:05.443Z,85.18
2022-11-28T11:41:32.857Z,87.45
2022-11-28T11:44:20.375Z,90.33
2022-11-28T11:47:03.842Z,90.75
2022-11-28T11:49:43.981Z,92.57
2022-11-28T11:52:16.787Z,93.71
2022-11-28T11:54:54.419Z,95.10
2022-11-28T11:57:34.750Z,94.56
2022-11-28T12:00:14.841Z,93.45
2022-11-28T12:02:54.768Z,94.92
2022-11-28T12:06:06.154Z,95.50
2022-11-28T12:08:43.527Z,95.47
2022-11-28T12:11:34.045Z,95.18
2022-11-28T12:14:22.669Z,94.80
2022-11-28T12:17:14.346Z,96.22
2022-11-28T12:20:01.334Z,97.96
2022-11-28T12:22:48.668Z,98.68
2022-11-28T12:25:38.430Z,99.10
2022-11-28T12:28:16.948Z,99.87
2022-11-28T12:31:22.923Z,98.31
2022-11-28T12:34:25.315Z,98.19
2022-11-28T12:36:57.843Z,98.54
2022-11-28T12:39:39.727Z,100.00
2022-11-28T12:42:25.568Z,100.00
2022-11-28T12:45:10.427Z,100.00
2022-11-28T12:48:07.478Z,99.53
2022-11-28T12:50:42.773Z,99.86
2022-11-28T12:53:46.711Z,100.00
2022-11-28T12:56:58.215Z,100.00
2022-11-28T12:59:43.581Z,100.00
2022-11-28T13:02:47.800Z,100.00
2022-11-28T13:05:25.657Z,100.00
2022-11-28T13:08:01.253Z,100.00
2022-11-28T13:10:31.419Z,100.00
2022-11-28T13:13:03.638Z,100.00
2022-11-28T13:15:48.432Z,100.00
2022-11-28T13:18:26.697Z,100.00
2022-11-28T13:20:57.684Z,100.00
2022-11-28T13:23:45.814Z,100.00
2022-11-28T13:26:41.479Z,100.00
2022-11-28T13:29:40.380Z,100.00
2022-11-28T13:32:22.041Z,100.00
2022-11-28T13:34:49.519Z,100.00
2022-11-28T13:40:31.248Z,100.00
2022-11-28T13:43:30.362Z,100.00
2022-11-28T13:45:56.961Z,100.00
2022-11-28T13:49:05.999Z,100.00
2022-11-28T13:51:31.584Z,100.00
2022-11-28T13:54:17.071Z,100.00
2022-11-28T13:57:03.606Z,100.00
2022-11-28T13:59:31.648Z,100.00
2022-11-28T14:02:05.137Z,100.00
2022-11-28T14:04:32.776Z,100.00
2022-11-28T14:07:06.552Z,100.00
2022-11-28T14:09:52.552Z,100.00
2022-11-28T14:12:47.175Z,100.00
2022-11-28T14:15:34.859Z,100.00
2022-11-28T14:18:24.772Z,100.00
2022-11-28T14:21:11.611Z,100.00
2022-11-28T14:23:49.330Z,100.00
2022-11-28T14:26:35.128Z,100.00
2022-11-28T14:29:04.890Z,100.00
2022-11-28T14:31:39.017Z,100.00
2022-11-28T14:34:27.536Z,100.00
2022-11-28T14:37:19.612Z,100.00
2022-11-28T14:39:48.707Z,100.00
2022-11-28T14:42:36.925Z,100.00
2022-11-28T14:45:23.243Z,100.00
2022-11-28T14:48:30.241Z,100.00
2022-11-28T14:51:01.643Z,100.00
2022-11-28T14:53:35.332Z,100.00
2022-11-28T14:56:13.863Z,100.00
2022-11-28T14:58:47.728Z,100.00
2022-11-28T15:01:23.128Z,100.00
2022-11-28T15:04:17.122Z,100.00
2022-11-28T15:06:44.699Z,100.00
2022-11-28T15:09:34.490Z,100.00
2022-11-28T15:12:22.944Z,100.00
2022-11-28T15:14:56.155Z,100.00
2022-11-28T15:17:28.623Z,100.00
2022-11-28T15:19:57.300Z,100.00
2022-11-28T15:22:53.249Z,100.00
2022-11-28T15:25:25.620Z,100.00
2022-11-28T15:27:53.223Z,100.00
2022-11-28T15:30:26.425Z,100.00
2022-11-28T15:32:59.601Z,100.00
2022-11-28T15:35:27.224Z,100.00
2022-11-28T15:37:57.857Z,100.00
2022-11-28T15:40:36.170Z,100.00
2022-11-28T15:43:09.489Z,100.00
2022-11-28T15:45:42.063Z,100.00
2022-11-28T15:48:26.649Z,100.00
2022-11-28T15:50:53.476Z,100.00
2022-11-28T15:53:21.262Z,100.00
2022-11-28T15:55:47.951Z,100.00
2022-11-28T15:58:31.448Z,100.00
2022-11-28T16:01:05.436Z,100.00
2022-11-28T16:03:45.557Z,100.00
2022-11-28T16:06:12.442Z,100.00
2022-11-28T16:08:41.296Z,100.00
2022-11-28T16:11:10.105Z,100.00
2022-11-28T16:13:39.250Z,100.00
2022-11-28T16:16:12.453Z,100.00
2022-11-28T16:18:45.467Z,100.00
2022-11-28T16:21:13.875Z,100.00
2022-11-28T16:23:41.387Z,100.00
2022-11-28T16:26:22.142Z,100.00
2022-11-28T16:29:06.858Z,100.00
2022-11-28T16:31:34.666Z,100.00
2022-11-28T16:34:02.655Z,100.00
2022-11-28T16:36:35.642Z,100.00
2022-11-28T16:39:09.859Z,100.00
2022-11-28T16:41:42.318Z,100.00
2022-11-28T16:44:15.502Z,100.00
2022-11-28T16:46:53.911Z,100.00
2022-11-28T16:49:35.781Z,100.00
2022-11-28T16:52:20.874Z,100.00
2022-11-28T16:54:51.873Z,100.00
2022-11-28T16:57:20.131Z,100.00
2022-11-28T16:59:48.061Z,100.00
2022-11-28T17:02:22.471Z,100.00
2022-11-28T17:04:50.783Z,100.00
2022-11-28T17:07:23.166Z,100.00
2022-11-28T17:09:50.902Z,100.00
2022-11-28T17:12:28.239Z,100.00
2022-11-28T17:14:56.019Z,100.00
2022-11-28T17:17:23.707Z,100.00
2022-11-28T17:19:50.687Z,100.00
2022-11-28T17:22:20.800Z,100.00
2022-11-28T17:24:48.660Z,100.00
2022-11-28T17:27:15.574Z,100.00
2022-11-28T17:29:42.443Z,100.00
2022-11-28T17:32:13.519Z,100.00
2022-11-28T17:34:42.107Z,100.00
2022-11-28T17:37:09.299Z,100.00
2022-11-28T17:39:35.776Z,100.00
2022-11-28T17:42:02.488Z,100.00
2022-11-28T17:44:34.296Z,100.00
2022-11-28T17:47:02.126Z,100.00
2022-11-28T17:49:29.428Z,100.00
2022-11-28T17:51:56.606Z,100.00
2022-11-28T17:54:25.164Z,100.00
2022-11-28T17:56:53.092Z,100.00
2022-11-28T17:59:21.776Z,100.00
2022-11-28T18:01:48.622Z,100.00
2022-11-28T18:04:15.387Z,100.00
2022-11-28T18:06:46.879Z,100.00
2022-11-28T18:09:13.941Z,100.00
2022-11-28T18:11:41.947Z,100.00
2022-11-28T18:14:08.983Z,100.00
2022-11-28T18:16:36.122Z,100.00
2022-11-28T18:19:03.928Z,100.00
2022-11-28T18:21:30.679Z,100.00
2022-11-28T18:23:57.398Z,100.00
2022-11-28T18:26:26.000Z,100.00
2022-11-28T18:28:52.886Z,100.00
2022-11-28T18:31:26.005Z,100.00
2022-11-28T18:33:58.726Z,100.00
2022-11-28T18:36:29.892Z,100.00
2022-11-28T18:38:58.619Z,100.00
2022-11-28T18:41:26.048Z,100.00
2022-11-28T18:43:57.312Z,100.00
2022-11-28T18:46:25.936Z,100.00
2022-11-28T18:48:53.688Z,100.00
2022-11-28T18:51:27.700Z,100.00
2022-11-28T18:53:55.408Z,100.00
2022-11-28T18:56:23.862Z,100.00
2022-11-28T18:58:52.374Z,100.00
2022-11-28T19:01:29.981Z,100.00
2022-11-28T19:04:02.414Z,100.00
2022-11-28T19:06:29.339Z,100.00
2022-11-28T19:08:58.613Z,100.00
2022-11-28T19:11:25.979Z,100.00
2022-11-28T19:13:53.410Z,100.00
2022-11-28T19:16:23.128Z,100.00
2022-11-28T19:18:49.716Z,100.00
2022-11-28T19:21:21.734Z,100.00
2022-11-28T19:23:49.262Z,100.00
2022-11-28T19:26:19.570Z,100.00
2022-11-28T19:28:47.735Z,100.00
2022-11-28T19:31:27.129Z,100.00
2022-11-28T19:34:01.499Z,100.00
2022-11-28T19:36:33.272Z,100.00
2022-11-28T19:39:00.235Z,100.00
2022-11-28T19:41:28.014Z,100.00
2022-11-28T19:43:56.495Z,100.00
2022-11-28T19:46:23.259Z,100.00
2022-11-28T19:48:51.535Z,100.00
2022-11-28T19:51:19.055Z,100.00
2022-11-28T19:53:45.986Z,100.00
2022-11-28T19:56:19.291Z,100.00
2022-11-28T19:58:47.006Z,100.00
2022-11-28T20:01:19.202Z,100.00
2022-11-28T20:03:47.746Z,100.00
2022-11-28T20:06:14.323Z,100.00
2022-11-28T20:08:42.613Z,100.00
2022-11-28T20:11:23.378Z,100.00
2022-11-28T20:13:56.273Z,100.00
2022-11-28T20:16:23.027Z,100.00
2022-11-28T20:18:49.543Z,100.00
2022-11-28T20:21:19.038Z,100.00
2022-11-28T20:23:51.754Z,100.00
2022-11-28T20:26:20.447Z,100.00
2022-11-28T20:28:48.096Z,100.00
2022-11-28T20:31:33.858Z,100.00
2022-11-28T20:34:01.914Z,100.00
2022-11-28T20:36:31.144Z,100.00
2022-11-28T20:38:58.699Z,100.00
2022-11-28T20:41:26.496Z,100.00
2022-11-28T20:43:53.283Z,100.00
2022-11-28T20:46:27.032Z,100.00
2022-11-28T20:48:54.296Z,100.00
2022-11-28T20:51:26.792Z,100.00
2022-11-28T20:53:54.446Z,100.00
2022-11-28T20:56:23.439Z,100.00
2022-11-28T20:58:50.274Z,100.00
2022-11-28T21:01:19.809Z,100.00
2022-11-28T21:03:46.512Z,100.00
2022-11-28T21:06:13.169Z,100.00
2022-11-28T21:08:40.363Z,100.00
2022-11-28T21:11:09.215Z,100.00
2022-11-28T21:13:35.819Z,100.00
2022-11-28T21:16:13.839Z,100.00
2022-11-28T21:18:41.449Z,100.00
2022-11-28T21:21:16.071Z,100.00
2022-11-28T21:23:43.603Z,100.00
2022-11-28T21:26:19.470Z,100.00
2022-11-28T21:28:48.141Z,100.00
2022-11-28T21:31:21.690Z,100.00
2022-11-28T21:33:49.088Z,100.00
2022-11-28T21:36:15.858Z,100.00
2022-11-28T21:38:42.780Z,100.00
2022-11-28T21:41:09.402Z,100.00
2022-11-28T21:43:36.133Z,100.00
2022-11-28T21:46:05.346Z,100.00
2022-11-28T21:48:34.540Z,100.00
2022-11-28T21:51:03.614Z,100.00
2022-11-28T21:53:32.039Z,100.00
2022-11-28T21:56:03.039Z,100.00
2022-11-28T21:58:30.690Z,100.00
2022-11-28T22:01:03.546Z,100.00
2022-11-28T22:03:31.913Z,100.00
2022-11-28T22:06:17.157Z,100.00
2022-11-28T22:08:44.343Z,100.00
2022-11-28T22:11:13.114Z,100.00
2022-11-28T22:13:42.138Z,100.00
2022-11-28T22:16:40.428Z,100.00
2022-11-28T22:19:07.784Z,100.00
2022-11-28T22:21:55.292Z,100.00
2022-11-28T22:24:22.883Z,100.00
2022-11-28T22:26:49.628Z,100.00
2022-11-28T22:29:16.944Z,100.00
2022-11-28T22:31:43.560Z,100.00
2022-11-28T22:34:10.724Z,100.00
2022-11-28T22:36:38.058Z,100.00
2022-11-28T22:39:04.716Z,100.00
2022-11-28T22:41:31.643Z,100.00
2022-11-28T22:44:00.920Z,100.00
2022-11-28T22:46:29.779Z,100.00
2022-11-28T22:48:59.878Z,100.00
2022-11-28T22:51:26.785Z,100.00
2022-11-28T22:53:58.390Z,100.00
2022-11-28T22:56:27.215Z,100.00
2022-11-28T22:58:54.239Z,100.00
2022-11-28T23:01:24.220Z,100.00
2022-11-28T23:03:51.595Z,100.00
2022-11-28T23:06:24.069Z,100.00
2022-11-28T23:08:55.567Z,100.00
2022-11-28T23:11:25.782Z,100.00
2022-11-28T23:13:53.174Z,100.00
2022-11-28T23:16:25.715Z,100.00
2022-11-28T23:18:55.541Z,100.00
2022-11-28T23:21:24.619Z,100.00
2022-11-28T23:23:51.762Z,100.00
2022-11-28T23:26:21.306Z,100.00
2022-11-28T23:28:48.496Z,100.00
2022-11-28T23:31:18.592Z,100.00
2022-11-28T23:33:46.665Z,100.00
2022-11-28T23:36:23.667Z,100.00
2022-11-28T23:38:55.924Z,100.00
2022-11-28T23:41:23.306Z,100.00
2022-11-28T23:43:50.072Z,100.00
2022-11-28T23:46:17.915Z,100.00
2022-11-28T23:48:45.205Z,100.00
2022-11-28T23:51:13.770Z,100.00
2022-11-28T23:53:41.317Z,100.00
2022-11-28T23:56:13.416Z,100.00
2022-11-28T23:58:41.209Z,100.00
